Time;durP1;ratioP1;P1;durP2;ratioP2;P2;SDS_P1;SDS_P2;PMS_P1;PMS_P2;Temp;Humidity;BMP_temperature;BMP_pressure;BME280_temperature;BME280_humidity;BME280_pressure;Samples;Min_cycle;Max_cycle;Signal;HPM_P1;HPM_P2
2024/01/16 00:00:04;;;;;;;11.65;4.20;;;;;;;;;;4951255;29;20051;-67
2024/01/16 00:02:31;;;;;;;8.35;4.35;;;;;;;;;;4955882;29;20131;-67
2024/01/16 00:04:57;;;;;;;13.05;4.45;;;;;;;;;;4953027;29;20087;-66
2024/01/16 00:07:24;;;;;;;9.45;4.40;;;;;;;;;;4934867;29;20066;-66
2024/01/16 00:09:52;;;;;;;13.05;4.30;;;;;;;;;;4951351;29;20043;-65
2024/01/16 00:12:19;;;;;;;12.25;4.07;;;;;;;;;;4951072;29;20051;-65
2024/01/16 00:14:45;;;;;;;9.25;4.93;;;;;;;;;;4950959;29;20055;-66
2024/01/16 00:17:12;;;;;;;15.68;4.35;;;;;;;;;;4950793;29;20055;-66
2024/01/16 00:19:38;;;;;;;12.38;4.15;;;;;;;;;;4951180;29;20043;-65
2024/01/16 00:22:04;;;;;;;11.45;4.07;;;;;;;;;;4949878;28;20043;-66
2024/01/16 00:24:31;;;;;;;12.05;5.35;;;;;;;;;;4952317;29;20055;-67
2024/01/16 00:26:57;;;;;;;29.88;10.88;;;;;;;;;;4955736;29;20051;-67
2024/01/16 00:29:25;;;;;;;12.75;6.30;;;;;;;;;;4951394;29;20674;-65
2024/01/16 00:31:51;;;;;;;9.43;5.03;;;;;;;;;;4951282;29;20579;-65
2024/01/16 00:34:17;;;;;;;12.05;4.18;;;;;;;;;;4951185;29;20490;-65
2024/01/16 00:36:44;;;;;;;14.68;5.18;;;;;;;;;;4950517;29;20055;-65
2024/01/16 00:39:11;;;;;;;13.27;5.70;;;;;;;;;;4950766;29;20055;-65
2024/01/16 00:41:37;;;;;;;9.77;4.38;;;;;;;;;;4933651;29;20070;-65
2024/01/16 00:44:04;;;;;;;7.47;3.70;;;;;;;;;;4952047;29;20085;-69
2024/01/16 00:46:30;;;;;;;15.93;5.80;;;;;;;;;;4934973;29;20055;-68
2024/01/16 00:48:56;;;;;;;12.35;4.30;;;;;;;;;;4950780;29;20146;-65
2024/01/16 00:51:23;;;;;;;9.77;4.78;;;;;;;;;;4950967;28;20054;-65
2024/01/16 00:53:50;;;;;;;9.45;4.20;;;;;;;;;;4932472;29;20455;-66
2024/01/16 00:56:16;;;;;;;11.93;4.30;;;;;;;;;;4950239;29;20070;-65
2024/01/16 00:58:42;;;;;;;9.40;3.72;;;;;;;;;;4950140;28;20114;-65
2024/01/16 01:01:09;;;;;;;11.23;4.72;;;;;;;;;;4950146;29;20054;-66
2024/01/16 01:03:35;;;;;;;11.18;4.70;;;;;;;;;;4950183;28;20051;-65
2024/01/16 01:06:02;;;;;;;14.23;4.47;;;;;;;;;;4950479;29;20058;-65
2024/01/16 01:08:29;;;;;;;8.10;4.82;;;;;;;;;;4950432;29;20050;-66
2024/01/16 01:10:55;;;;;;;9.10;4.18;;;;;;;;;;4949874;29;20050;-67
2024/01/16 01:13:22;;;;;;;7.88;4.63;;;;;;;;;;4950295;29;20514;-66
2024/01/16 01:15:48;;;;;;;9.40;4.53;;;;;;;;;;4950053;29;20069;-66
2024/01/16 01:18:15;;;;;;;14.88;5.95;;;;;;;;;;4949964;29;20134;-71
2024/01/16 01:20:41;;;;;;;11.10;6.22;;;;;;;;;;4949848;29;20047;-67
2024/01/16 01:23:08;;;;;;;11.07;4.28;;;;;;;;;;4948791;28;20043;-66
2024/01/16 01:25:34;;;;;;;4.35;2.28;;;;;;;;;;4950334;29;20055;-65
2024/01/16 01:28:01;;;;;;;15.93;4.22;;;;;;;;;;4949938;29;20058;-65
2024/01/16 01:30:27;;;;;;;6.63;2.53;;;;;;;;;;4949770;29;20047;-64
2024/01/16 01:32:54;;;;;;;2.83;1.50;;;;;;;;;;4949590;29;20055;-66
2024/01/16 01:35:20;;;;;;;5.03;1.73;;;;;;;;;;4949505;29;20421;-66
2024/01/16 01:37:47;;;;;;;6.35;1.90;;;;;;;;;;4949578;29;20051;-65
2024/01/16 01:40:15;;;;;;;3.83;1.90;;;;;;;;;;4949640;29;20131;-65
2024/01/16 01:42:42;;;;;;;8.38;2.25;;;;;;;;;;4949601;29;20776;-65
2024/01/16 01:45:09;;;;;;;5.25;1.92;;;;;;;;;;4949432;29;20612;-66
2024/01/16 01:47:36;;;;;;;5.63;1.85;;;;;;;;;;4949455;29;20130;-66
2024/01/16 01:50:03;;;;;;;3.97;2.10;;;;;;;;;;4949256;29;20054;-65
2024/01/16 01:52:33;;;;;;;6.88;2.00;;;;;;;;;;4932368;29;20059;-66
2024/01/16 01:55:01;;;;;;;6.38;2.20;;;;;;;;;;4948553;28;20567;-65
2024/01/16 01:57:28;;;;;;;5.05;2.08;;;;;;;;;;4949420;29;20086;-65
2024/01/16 01:59:55;;;;;;;5.03;1.90;;;;;;;;;;4949502;29;20062;-65
2024/01/16 02:02:21;;;;;;;7.63;2.55;;;;;;;;;;4949323;28;20078;-65
2024/01/16 02:04:48;;;;;;;2.58;1.55;;;;;;;;;;4948966;28;20058;-66
2024/01/16 02:07:15;;;;;;;6.68;2.28;;;;;;;;;;4949411;29;20070;-65
2024/01/16 02:09:42;;;;;;;3.08;1.98;;;;;;;;;;4949297;29;20051;-65
2024/01/16 02:12:09;;;;;;;6.65;2.20;;;;;;;;;;4949470;29;20075;-67
2024/01/16 02:14:35;;;;;;;5.82;1.58;;;;;;;;;;4948941;29;20083;-66
2024/01/16 02:17:02;;;;;;;3.50;1.65;;;;;;;;;;4948969;29;20142;-65
2024/01/16 02:19:28;;;;;;;4.97;2.00;;;;;;;;;;4949151;29;20048;-65
2024/01/16 02:21:58;;;;;;;5.63;1.40;;;;;;;;;;4951273;29;20427;-68
2024/01/16 02:24:25;;;;;;;4.40;2.05;;;;;;;;;;4953493;28;20075;-65
2024/01/16 02:26:51;;;;;;;3.20;1.38;;;;;;;;;;4933058;29;20052;-66
2024/01/16 02:29:18;;;;;;;3.17;1.83;;;;;;;;;;4949863;29;20055;-65
2024/01/16 02:31:45;;;;;;;6.85;1.63;;;;;;;;;;4949236;29;20052;-65
2024/01/16 02:34:11;;;;;;;4.85;1.77;;;;;;;;;;4949229;29;20087;-66
2024/01/16 02:36:38;;;;;;;3.50;1.73;;;;;;;;;;4932178;29;20432;-65
2024/01/16 02:39:06;;;;;;;4.38;2.25;;;;;;;;;;4949457;29;20107;-65
2024/01/16 02:41:32;;;;;;;4.40;2.03;;;;;;;;;;4948961;29;20059;-65
2024/01/16 02:43:59;;;;;;;6.05;1.60;;;;;;;;;;4949081;29;20077;-65
2024/01/16 02:46:25;;;;;;;8.73;2.25;;;;;;;;;;4953210;29;20074;-68
2024/01/16 02:48:52;;;;;;;5.15;2.20;;;;;;;;;;4934435;29;20126;-65
2024/01/16 02:51:18;;;;;;;2.42;1.48;;;;;;;;;;4949440;28;20396;-66
2024/01/16 02:53:44;;;;;;;4.07;2.40;;;;;;;;;;4932497;29;20125;-66
2024/01/16 02:56:11;;;;;;;2.60;1.60;;;;;;;;;;4948020;28;20051;-65
2024/01/16 02:58:37;;;;;;;4.35;1.95;;;;;;;;;;4949110;29;20090;-65
2024/01/16 03:01:04;;;;;;;2.78;1.65;;;;;;;;;;4932172;29;20118;-65
2024/01/16 03:03:30;;;;;;;4.95;1.67;;;;;;;;;;4949119;29;20047;-66
2024/01/16 03:05:57;;;;;;;10.10;2.13;;;;;;;;;;4949154;29;20069;-65
2024/01/16 03:08:23;;;;;;;4.95;2.60;;;;;;;;;;4948932;29;20527;-66
2024/01/16 03:10:50;;;;;;;7.03;1.80;;;;;;;;;;4953463;29;20057;-71
2024/01/16 03:13:16;;;;;;;4.75;1.90;;;;;;;;;;4950431;29;20055;-65
2024/01/16 03:15:43;;;;;;;2.47;1.52;;;;;;;;;;4949538;29;20476;-65
2024/01/16 03:18:09;;;;;;;7.30;2.78;;;;;;;;;;4949212;29;20106;-65
2024/01/16 03:20:39;;;;;;;7.03;1.75;;;;;;;;;;4949393;29;20047;-65
2024/01/16 03:23:05;;;;;;;3.42;1.83;;;;;;;;;;4949278;29;20493;-65
2024/01/16 03:25:32;;;;;;;6.13;1.83;;;;;;;;;;4948470;28;20083;-65
2024/01/16 03:27:58;;;;;;;5.07;2.08;;;;;;;;;;4952207;28;20110;-65
2024/01/16 03:30:25;;;;;;;5.80;1.88;;;;;;;;;;4953004;29;20044;-66
2024/01/16 03:32:52;;;;;;;3.40;2.13;;;;;;;;;;4954247;29;20094;-66
2024/01/16 03:35:18;;;;;;;3.65;1.60;;;;;;;;;;4939457;29;20078;-64
2024/01/16 03:37:44;;;;;;;5.97;1.23;;;;;;;;;;4953020;29;20051;-66
2024/01/16 03:40:12;;;;;;;10.20;2.00;;;;;;;;;;4952134;29;20089;-67
2024/01/16 03:42:38;;;;;;;5.63;1.45;;;;;;;;;;4953011;29;20106;-64
2024/01/16 03:45:05;;;;;;;4.85;1.85;;;;;;;;;;4953372;29;20051;-65
2024/01/16 03:47:32;;;;;;;3.42;1.98;;;;;;;;;;4955011;29;20111;-65
2024/01/16 03:49:58;;;;;;;4.32;1.88;;;;;;;;;;4956213;29;20055;-65
2024/01/16 03:52:25;;;;;;;3.85;1.48;;;;;;;;;;4951490;28;20055;-65
2024/01/16 03:54:51;;;;;;;8.55;2.47;;;;;;;;;;4951305;29;20055;-67
2024/01/16 03:57:18;;;;;;;5.72;1.80;;;;;;;;;;4933181;29;20055;-65
2024/01/16 03:59:44;;;;;;;3.55;1.80;;;;;;;;;;4952044;29;20052;-65
2024/01/16 04:02:11;;;;;;;6.30;2.08;;;;;;;;;;4934261;29;20047;-65
2024/01/16 04:04:37;;;;;;;5.07;2.75;;;;;;;;;;4951248;29;20138;-65
2024/01/16 04:07:04;;;;;;;4.22;2.45;;;;;;;;;;4951280;29;20075;-65
2024/01/16 04:09:30;;;;;;;6.53;2.00;;;;;;;;;;4951102;29;20059;-65
2024/01/16 04:11:57;;;;;;;3.33;2.00;;;;;;;;;;4951284;29;20404;-65
2024/01/16 04:14:23;;;;;;;3.10;1.70;;;;;;;;;;4951085;29;20051;-64
2024/01/16 04:16:49;;;;;;;5.30;2.22;;;;;;;;;;4952734;29;20062;-71
2024/01/16 04:19:16;;;;;;;3.50;1.83;;;;;;;;;;4953163;29;20059;-65
2024/01/16 04:21:42;;;;;;;3.88;2.00;;;;;;;;;;4951637;29;20043;-66
2024/01/16 04:24:09;;;;;;;9.00;2.28;;;;;;;;;;4951473;29;20073;-65
2024/01/16 04:26:36;;;;;;;8.65;2.38;;;;;;;;;;4950248;28;20047;-64
2024/01/16 04:29:03;;;;;;;3.88;2.03;;;;;;;;;;4950648;29;20044;-65
2024/01/16 04:31:30;;;;;;;8.52;2.55;;;;;;;;;;4950974;29;20102;-68
2024/01/16 04:33:56;;;;;;;6.18;2.40;;;;;;;;;;4950588;29;20051;-67
2024/01/16 04:36:23;;;;;;;6.60;2.13;;;;;;;;;;4951035;29;20054;-65
2024/01/16 04:38:49;;;;;;;3.10;2.35;;;;;;;;;;4949924;28;20055;-65
2024/01/16 04:41:17;;;;;;;7.28;3.83;;;;;;;;;;4950550;29;20094;-64
2024/01/16 04:43:44;;;;;;;6.95;3.03;;;;;;;;;;4950711;29;20051;-65
2024/01/16 04:46:11;;;;;;;7.07;2.90;;;;;;;;;;4950349;29;20079;-65
2024/01/16 04:48:37;;;;;;;6.53;2.70;;;;;;;;;;4950379;29;20134;-65
2024/01/16 04:51:04;;;;;;;11.65;3.47;;;;;;;;;;4950039;28;20055;-66
2024/01/16 04:53:30;;;;;;;8.88;3.80;;;;;;;;;;4950776;29;20134;-65
2024/01/16 04:55:57;;;;;;;6.57;3.65;;;;;;;;;;4949726;28;20054;-67
2024/01/16 04:58:23;;;;;;;9.98;3.40;;;;;;;;;;4949513;28;20055;-66
2024/01/16 05:00:50;;;;;;;9.98;3.17;;;;;;;;;;4950070;29;20079;-66
2024/01/16 05:03:16;;;;;;;5.63;2.90;;;;;;;;;;4950122;29;20492;-65
2024/01/16 05:05:43;;;;;;;12.80;3.92;;;;;;;;;;4949981;29;20052;-67
2024/01/16 05:08:09;;;;;;;6.50;3.58;;;;;;;;;;4950016;29;20434;-65
2024/01/16 05:14:17;;;;;;;9.63;3.20;;;;;;;;;;4951414;29;20042;-64
2024/01/16 05:16:44;;;;;;;7.22;2.95;;;;;;;;;;4951111;29;20055;-66
2024/01/16 05:19:10;;;;;;;6.90;3.47;;;;;;;;;;4951352;29;20114;-65
2024/01/16 05:21:37;;;;;;;15.52;3.65;;;;;;;;;;4951254;29;20051;-65
2024/01/16 05:24:04;;;;;;;10.02;2.70;;;;;;;;;;4951571;29;20455;-66
2024/01/16 05:26:31;;;;;;;6.82;2.72;;;;;;;;;;4951027;28;20142;-66
2024/01/16 05:28:57;;;;;;;5.50;2.85;;;;;;;;;;4952046;28;20459;-66
2024/01/16 05:31:24;;;;;;;7.63;2.72;;;;;;;;;;4956304;29;20059;-74
2024/01/16 05:33:50;;;;;;;4.63;3.00;;;;;;;;;;4935198;29;20489;-65
2024/01/16 05:36:16;;;;;;;7.60;3.33;;;;;;;;;;4951562;29;20137;-64
2024/01/16 05:38:43;;;;;;;13.00;3.20;;;;;;;;;;4951401;29;20047;-65
2024/01/16 05:41:10;;;;;;;4.40;2.85;;;;;;;;;;4951080;29;20154;-65
2024/01/16 05:43:36;;;;;;;5.25;3.10;;;;;;;;;;4950887;29;20119;-65
2024/01/16 05:46:03;;;;;;;11.02;3.75;;;;;;;;;;4951031;29;20338;-65
2024/01/16 05:48:29;;;;;;;9.77;3.78;;;;;;;;;;4950895;29;20051;-64
2024/01/16 05:50:56;;;;;;;7.30;3.60;;;;;;;;;;4950432;28;20143;-64
2024/01/16 05:53:22;;;;;;;7.80;4.05;;;;;;;;;;4954560;29;20057;-65
2024/01/16 05:55:49;;;;;;;8.00;4.30;;;;;;;;;;4954421;29;20061;-65
2024/01/16 05:58:15;;;;;;;9.40;4.40;;;;;;;;;;4930142;29;20051;-64
2024/01/16 06:00:42;;;;;;;11.18;4.55;;;;;;;;;;4930896;29;20052;-63
2024/01/16 06:03:08;;;;;;;8.70;4.40;;;;;;;;;;4931525;29;20676;-65
2024/01/16 06:05:34;;;;;;;6.95;4.00;;;;;;;;;;4933749;29;20134;-67
2024/01/16 06:08:02;;;;;;;9.80;4.00;;;;;;;;;;4950837;29;20058;-65
2024/01/16 06:10:29;;;;;;;9.52;4.63;;;;;;;;;;4933894;29;20448;-66
2024/01/16 06:12:55;;;;;;;8.73;4.20;;;;;;;;;;4950733;29;20051;-65
2024/01/16 06:15:23;;;;;;;9.00;4.60;;;;;;;;;;4951201;29;20400;-72
2024/01/16 06:17:49;;;;;;;10.98;4.72;;;;;;;;;;4938029;29;20075;-66
2024/01/16 06:20:16;;;;;;;9.68;4.32;;;;;;;;;;4951750;28;20054;-65
2024/01/16 06:22:42;;;;;;;6.53;4.22;;;;;;;;;;4950873;28;20530;-65
2024/01/16 06:25:08;;;;;;;13.50;5.30;;;;;;;;;;4950403;29;20047;-65
2024/01/16 06:27:35;;;;;;;5.40;4.10;;;;;;;;;;4950284;28;20146;-66
2024/01/16 06:30:03;;;;;;;10.68;4.85;;;;;;;;;;4949843;28;20051;-65
2024/01/16 06:32:30;;;;;;;9.52;4.22;;;;;;;;;;4950352;29;20051;-65
2024/01/16 06:34:56;;;;;;;11.77;4.72;;;;;;;;;;4950393;29;20078;-65
2024/01/16 06:37:23;;;;;;;8.25;3.97;;;;;;;;;;4950495;29;20047;-65
2024/01/16 06:39:49;;;;;;;8.75;5.47;;;;;;;;;;4953815;29;20051;-70
2024/01/16 06:42:16;;;;;;;9.82;4.78;;;;;;;;;;4953757;29;20055;-65
2024/01/16 06:44:42;;;;;;;11.45;6.05;;;;;;;;;;4950813;29;20488;-65
2024/01/16 06:47:08;;;;;;;14.95;6.30;;;;;;;;;;4950203;29;20094;-65
2024/01/16 06:49:35;;;;;;;13.82;6.28;;;;;;;;;;4950373;29;20051;-65
2024/01/16 06:52:02;;;;;;;12.00;6.00;;;;;;;;;;4932983;29;20452;-66
2024/01/16 06:54:28;;;;;;;9.55;5.63;;;;;;;;;;4950263;29;20146;-66
2024/01/16 06:56:54;;;;;;;11.15;5.72;;;;;;;;;;4950554;29;20081;-65
2024/01/16 06:59:21;;;;;;;15.98;5.65;;;;;;;;;;4949514;28;20130;-65
2024/01/16 07:01:48;;;;;;;12.77;6.10;;;;;;;;;;4951287;28;20047;-65
2024/01/16 07:04:15;;;;;;;10.57;5.80;;;;;;;;;;4936554;29;20055;-67
2024/01/16 07:06:41;;;;;;;11.55;5.40;;;;;;;;;;4953330;29;20052;-66
2024/01/16 07:09:10;;;;;;;12.60;6.78;;;;;;;;;;4953735;29;20091;-68
2024/01/16 07:11:38;;;;;;;15.27;7.03;;;;;;;;;;4953400;29;20620;-66
2024/01/16 07:14:06;;;;;;;12.13;5.80;;;;;;;;;;4953448;28;20511;-65
2024/01/16 07:16:33;;;;;;;16.75;5.78;;;;;;;;;;4936211;29;20051;-66
2024/01/16 07:18:59;;;;;;;18.40;5.57;;;;;;;;;;4953115;29;20563;-64
2024/01/16 07:21:26;;;;;;;9.55;5.50;;;;;;;;;;4953283;29;20097;-68
2024/01/16 07:23:52;;;;;;;12.18;6.43;;;;;;;;;;4953323;28;20098;-67
2024/01/16 07:26:19;;;;;;;11.73;5.72;;;;;;;;;;4953031;28;20121;-66
2024/01/16 07:28:47;;;;;;;13.10;6.53;;;;;;;;;;4953253;28;20047;-66
2024/01/16 07:31:14;;;;;;;13.80;6.63;;;;;;;;;;4949060;28;20686;-67
2024/01/16 07:33:40;;;;;;;13.80;6.13;;;;;;;;;;4952961;28;20055;-67
2024/01/16 07:36:08;;;;;;;15.25;6.70;;;;;;;;;;4953207;29;20415;-67
2024/01/16 07:38:36;;;;;;;13.25;6.40;;;;;;;;;;4952364;28;20142;-69
2024/01/16 07:41:02;;;;;;;16.60;7.43;;;;;;;;;;4952964;29;20050;-64
2024/01/16 07:43:29;;;;;;;11.77;5.93;;;;;;;;;;4953311;29;20686;-67
2024/01/16 07:45:55;;;;;;;13.23;6.57;;;;;;;;;;4953056;28;20094;-67
2024/01/16 07:48:22;;;;;;;11.27;6.40;;;;;;;;;;4952991;29;20133;-65
2024/01/16 07:50:49;;;;;;;15.43;6.35;;;;;;;;;;4952480;28;20726;-69
2024/01/16 07:53:16;;;;;;;15.77;7.18;;;;;;;;;;4936514;29;20055;-66
2024/01/16 07:55:43;;;;;;;12.32;6.63;;;;;;;;;;4936328;29;20056;-67
2024/01/16 07:58:12;;;;;;;16.63;7.18;;;;;;;;;;4934042;29;20129;-70
2024/01/16 08:00:39;;;;;;;14.75;7.78;;;;;;;;;;4932930;29;20536;-66
2024/01/16 08:03:11;;;;;;;14.30;7.35;;;;;;;;;;4932316;29;20048;-66
2024/01/16 08:05:38;;;;;;;14.90;7.10;;;;;;;;;;4933168;29;20051;-67
2024/01/16 08:08:08;;;;;;;14.93;7.22;;;;;;;;;;4933232;29;20071;-70
2024/01/16 08:10:34;;;;;;;14.95;6.85;;;;;;;;;;4933526;29;20130;-66
2024/01/16 08:13:01;;;;;;;16.92;8.35;;;;;;;;;;4932189;29;20556;-64
2024/01/16 08:15:27;;;;;;;25.60;10.05;;;;;;;;;;4928666;29;20052;-65
2024/01/16 08:17:53;;;;;;;16.38;8.02;;;;;;;;;;4926738;29;20523;-68
2024/01/16 08:20:20;;;;;;;13.98;7.47;;;;;;;;;;4933240;29;20075;-67
2024/01/16 08:22:47;;;;;;;13.88;7.88;;;;;;;;;;4932926;29;20047;-67
2024/01/16 08:25:13;;;;;;;14.02;7.18;;;;;;;;;;4933148;29;20080;-66
2024/01/16 08:27:39;;;;;;;21.02;7.93;;;;;;;;;;4933217;29;20842;-68
2024/01/16 08:30:07;;;;;;;17.70;6.97;;;;;;;;;;4933246;29;20044;-68
2024/01/16 08:32:33;;;;;;;17.23;7.05;;;;;;;;;;4932922;29;20050;-69
2024/01/16 08:35:00;;;;;;;16.63;7.40;;;;;;;;;;4936690;29;20118;-69
2024/01/16 08:37:26;;;;;;;13.32;6.95;;;;;;;;;;4934301;29;20099;-66
2024/01/16 08:39:53;;;;;;;13.88;6.43;;;;;;;;;;4933336;29;20079;-65
2024/01/16 08:42:19;;;;;;;16.13;6.80;;;;;;;;;;4931949;29;20052;-67
2024/01/16 08:44:46;;;;;;;15.65;6.63;;;;;;;;;;4933285;29;20569;-66
2024/01/16 08:47:12;;;;;;;16.35;6.72;;;;;;;;;;4932861;29;20093;-68
2024/01/16 08:49:39;;;;;;;17.23;6.75;;;;;;;;;;4933074;29;20114;-67
2024/01/16 08:52:06;;;;;;;11.27;5.35;;;;;;;;;;4942547;29;20134;-68
2024/01/16 08:54:33;;;;;;;15.77;6.53;;;;;;;;;;4934807;29;20054;-68
2024/01/16 08:56:59;;;;;;;13.85;5.53;;;;;;;;;;4952923;28;20083;-67
2024/01/16 08:59:26;;;;;;;10.27;5.32;;;;;;;;;;4955314;29;20075;-66
2024/01/16 09:01:52;;;;;;;11.23;5.82;;;;;;;;;;4951923;28;20131;-66
2024/01/16 09:04:18;;;;;;;8.02;4.55;;;;;;;;;;4951518;28;20073;-67
2024/01/16 09:06:45;;;;;;;9.98;5.00;;;;;;;;;;4951767;29;20122;-68
2024/01/16 09:09:12;;;;;;;8.60;4.80;;;;;;;;;;4951613;29;20036;-68
2024/01/16 09:11:39;;;;;;;9.73;5.60;;;;;;;;;;4951885;29;20050;-70
2024/01/16 09:14:05;;;;;;;12.00;5.35;;;;;;;;;;4952157;29;20046;-67
2024/01/16 09:16:32;;;;;;;9.88;4.68;;;;;;;;;;4934827;29;20070;-66
2024/01/16 09:18:58;;;;;;;10.40;4.18;;;;;;;;;;4950966;29;20431;-67
2024/01/16 09:21:25;;;;;;;12.48;4.40;;;;;;;;;;4952841;29;20051;-73
2024/01/16 09:23:51;;;;;;;16.90;4.43;;;;;;;;;;4952531;28;20504;-65
2024/01/16 09:26:18;;;;;;;8.50;3.63;;;;;;;;;;4951422;28;20058;-70
2024/01/16 09:28:44;;;;;;;10.30;4.70;;;;;;;;;;4951556;29;20061;-66
2024/01/16 09:31:10;;;;;;;10.10;3.97;;;;;;;;;;4951568;28;20106;-68
2024/01/16 09:33:40;;;;;;;12.05;4.13;;;;;;;;;;4950049;28;20081;-68
2024/01/16 09:36:06;;;;;;;10.98;3.63;;;;;;;;;;4952115;29;20051;-69
2024/01/16 09:38:33;;;;;;;7.20;3.83;;;;;;;;;;4934263;29;20603;-66
2024/01/16 09:40:59;;;;;;;9.10;3.72;;;;;;;;;;4951710;28;20051;-70
2024/01/16 09:43:29;;;;;;;9.27;3.85;;;;;;;;;;4952006;29;20043;-69
2024/01/16 09:45:58;;;;;;;9.43;3.95;;;;;;;;;;4955155;29;20110;-66
2024/01/16 09:48:29;;;;;;;8.80;3.72;;;;;;;;;;4952234;29;20138;-71
2024/01/16 09:50:58;;;;;;;7.93;3.55;;;;;;;;;;4934386;28;20043;-74
2024/01/16 09:53:25;;;;;;;9.15;4.13;;;;;;;;;;4951245;29;20051;-69
2024/01/16 09:55:54;;;;;;;17.92;7.70;;;;;;;;;;4951417;29;20825;-70
2024/01/16 09:58:21;;;;;;;26.50;10.02;;;;;;;;;;4951071;29;20048;-71
2024/01/16 10:00:51;;;;;;;8.98;3.95;;;;;;;;;;4952017;29;20532;-70
2024/01/16 10:03:19;;;;;;;9.13;4.15;;;;;;;;;;4951349;28;20051;-71
2024/01/16 10:05:46;;;;;;;12.77;4.03;;;;;;;;;;4951796;29;20062;-71
2024/01/16 10:08:13;;;;;;;17.90;4.88;;;;;;;;;;4952427;29;20122;-69
2024/01/16 10:10:40;;;;;;;18.60;4.85;;;;;;;;;;4952142;29;20050;-67
2024/01/16 10:13:16;;;;;;;9.88;4.30;;;;;;;;;;4951412;29;20047;-66
2024/01/16 10:15:43;;;;;;;8.27;3.15;;;;;;;;;;4933988;29;20063;-65
2024/01/16 10:18:22;;;;;;;6.97;2.75;;;;;;;;;;4951129;28;20083;-65
2024/01/16 10:20:48;;;;;;;11.48;4.10;;;;;;;;;;4936052;29;20047;-66
2024/01/16 10:23:36;;;;;;;11.23;3.13;;;;;;;;;;4950998;29;20051;-65
2024/01/16 10:26:06;;;;;;;12.50;3.78;;;;;;;;;;4951451;29;20559;-61
2024/01/16 10:28:34;;;;;;;13.02;4.03;;;;;;;;;;4952341;29;20047;-61
2024/01/16 10:31:01;;;;;;;14.25;4.28;;;;;;;;;;4952404;29;20126;-63
2024/01/16 10:33:28;;;;;;;11.77;3.42;;;;;;;;;;4949539;28;20216;-63
2024/01/16 10:36:10;;;;;;;18.10;4.43;;;;;;;;;;4950153;28;20069;-65
2024/01/16 10:38:39;;;;;;;8.77;3.33;;;;;;;;;;4954532;29;20055;-62
2024/01/16 10:41:09;;;;;;;12.18;3.80;;;;;;;;;;4953880;28;20043;-61
2024/01/16 10:43:36;;;;;;;16.52;3.42;;;;;;;;;;4954141;29;20476;-62
2024/01/16 10:46:08;;;;;;;10.48;3.63;;;;;;;;;;4953470;28;20519;-62
2024/01/16 10:48:39;;;;;;;14.65;3.35;;;;;;;;;;4953942;29;20058;-62
2024/01/16 10:51:07;;;;;;;13.80;3.92;;;;;;;;;;4953765;28;20077;-60
2024/01/16 10:53:33;;;;;;;12.85;4.95;;;;;;;;;;4954705;29;20051;-61
2024/01/16 10:56:01;;;;;;;13.38;3.83;;;;;;;;;;4954199;29;20483;-63
2024/01/16 10:58:30;;;;;;;14.38;4.70;;;;;;;;;;4953579;29;20134;-63
2024/01/16 11:00:57;;;;;;;17.38;5.07;;;;;;;;;;4953298;29;20039;-62
2024/01/16 11:03:35;;;;;;;14.73;4.95;;;;;;;;;;4953935;29;20057;-64
2024/01/16 11:06:06;;;;;;;10.57;4.47;;;;;;;;;;4950610;28;20563;-61
2024/01/16 11:08:33;;;;;;;13.75;6.18;;;;;;;;;;4953635;29;20079;-60
2024/01/16 11:11:00;;;;;;;12.07;5.57;;;;;;;;;;4954318;29;20053;-66
2024/01/16 11:13:34;;;;;;;10.63;5.38;;;;;;;;;;4954101;28;20054;-64
2024/01/16 11:16:01;;;;;;;15.43;5.47;;;;;;;;;;4953519;29;20043;-67
2024/01/16 11:18:29;;;;;;;27.30;5.57;;;;;;;;;;4953350;29;20047;-63
2024/01/16 11:20:57;;;;;;;11.90;4.93;;;;;;;;;;4953174;29;20162;-66
2024/01/16 11:23:34;;;;;;;10.48;4.55;;;;;;;;;;4955483;29;20452;-67
2024/01/16 11:26:37;;;;;;;16.98;6.50;;;;;;;;;;4954005;29;20082;-66
2024/01/16 11:29:22;;;;;;;13.73;5.80;;;;;;;;;;4878490;29;20061;-63
2024/01/16 11:31:48;;;;;;;16.75;4.97;;;;;;;;;;4948480;29;20126;-64
2024/01/16 11:34:35;;;;;;;12.23;5.63;;;;;;;;;;4953021;28;20054;-65
2024/01/16 11:37:02;;;;;;;14.15;4.63;;;;;;;;;;4934033;29;20495;-64
2024/01/16 11:39:29;;;;;;;19.08;6.22;;;;;;;;;;4934185;29;20056;-67
2024/01/16 11:41:57;;;;;;;13.95;5.25;;;;;;;;;;4943804;28;20051;-64
2024/01/16 11:44:42;;;;;;;9.07;4.22;;;;;;;;;;4953898;29;20520;-67
2024/01/16 11:47:14;;;;;;;14.32;4.72;;;;;;;;;;4953520;28;20047;-63
2024/01/16 11:49:41;;;;;;;14.57;5.35;;;;;;;;;;4952996;29;20055;-61
2024/01/16 11:52:07;;;;;;;14.63;5.07;;;;;;;;;;4952740;28;20066;-60
2024/01/16 11:54:34;;;;;;;13.23;4.68;;;;;;;;;;4952787;29;20381;-63
2024/01/16 11:57:25;;;;;;;18.92;5.57;;;;;;;;;;4952418;29;20682;-62
2024/01/16 12:00:00;;;;;;;19.02;5.38;;;;;;;;;;4929006;29;20101;-62
2024/01/16 12:02:29;;;;;;;12.15;5.40;;;;;;;;;;4952468;29;20051;-64
2024/01/16 12:04:56;;;;;;;19.35;5.38;;;;;;;;;;4951855;28;20220;-69
2024/01/16 12:07:23;;;;;;;10.25;4.95;;;;;;;;;;4952592;29;20396;-61
2024/01/16 12:09:49;;;;;;;13.90;5.57;;;;;;;;;;4934908;28;20138;-64
2024/01/16 12:12:18;;;;;;;14.73;5.03;;;;;;;;;;4952454;29;20082;-62
2024/01/16 12:14:53;;;;;;;12.90;5.95;;;;;;;;;;4952023;29;20451;-61
2024/01/16 12:17:20;;;;;;;12.77;5.60;;;;;;;;;;4952499;29;20508;-65
2024/01/16 12:19:46;;;;;;;17.08;4.85;;;;;;;;;;4952162;29;20049;-63
2024/01/16 12:22:13;;;;;;;12.05;4.45;;;;;;;;;;4952288;29;20440;-63
2024/01/16 12:24:40;;;;;;;14.68;5.10;;;;;;;;;;4952256;29;20109;-62
2024/01/16 12:27:08;;;;;;;12.75;4.70;;;;;;;;;;4951798;29;20043;-64
2024/01/16 12:29:34;;;;;;;11.02;4.40;;;;;;;;;;4952250;29;20420;-63
2024/01/16 12:32:20;;;;;;;11.57;4.47;;;;;;;;;;4952558;29;20082;-63
2024/01/16 12:34:47;;;;;;;11.80;4.80;;;;;;;;;;4936333;29;20074;-63
2024/01/16 12:37:14;;;;;;;14.15;3.95;;;;;;;;;;4951490;28;20047;-63
2024/01/16 12:39:44;;;;;;;13.05;3.92;;;;;;;;;;4951398;28;20075;-64
2024/01/16 12:42:11;;;;;;;19.60;4.63;;;;;;;;;;4934773;29;20110;-62
2024/01/16 12:44:38;;;;;;;12.77;4.05;;;;;;;;;;4951867;29;20043;-63
2024/01/16 12:47:05;;;;;;;14.88;4.07;;;;;;;;;;4934688;29;20039;-63
2024/01/16 12:49:31;;;;;;;16.88;4.65;;;;;;;;;;4951780;28;20099;-65
2024/01/16 12:52:18;;;;;;;16.05;4.75;;;;;;;;;;4949191;28;20051;-62
2024/01/16 12:54:45;;;;;;;15.13;4.35;;;;;;;;;;4951651;29;20582;-63
2024/01/16 12:57:16;;;;;;;10.95;4.22;;;;;;;;;;4953590;28;20051;-60
2024/01/16 12:59:43;;;;;;;11.40;3.95;;;;;;;;;;4942708;28;20047;-62
2024/01/16 13:02:11;;;;;;;13.18;5.00;;;;;;;;;;4951291;29;20053;-62
2024/01/16 13:04:38;;;;;;;17.60;4.35;;;;;;;;;;4950656;29;20055;-61
2024/01/16 13:07:05;;;;;;;13.20;3.50;;;;;;;;;;4950210;28;20077;-62
2024/01/16 13:09:32;;;;;;;9.35;3.70;;;;;;;;;;4952620;28;20110;-65
2024/01/16 13:11:58;;;;;;;13.43;4.45;;;;;;;;;;4951318;29;20047;-62
2024/01/16 13:14:25;;;;;;;17.55;3.88;;;;;;;;;;4951340;29;20451;-63
2024/01/16 13:16:55;;;;;;;13.18;3.25;;;;;;;;;;4951681;28;20051;-61
2024/01/16 13:19:22;;;;;;;6.03;3.58;;;;;;;;;;4950752;28;20130;-61
2024/01/16 13:21:49;;;;;;;6.57;3.50;;;;;;;;;;4950605;28;20411;-64
2024/01/16 13:24:17;;;;;;;19.10;3.97;;;;;;;;;;4950224;29;20144;-69
2024/01/16 13:26:44;;;;;;;9.07;4.47;;;;;;;;;;4946142;29;20055;-64
2024/01/16 13:29:10;;;;;;;7.65;4.78;;;;;;;;;;4950908;29;20062;-64
2024/01/16 13:31:37;;;;;;;11.20;3.60;;;;;;;;;;4950417;29;20189;-66
2024/01/16 13:34:04;;;;;;;11.45;3.97;;;;;;;;;;4950833;28;20070;-66
2024/01/16 13:36:30;;;;;;;10.95;3.35;;;;;;;;;;4949980;28;20055;-70
2024/01/16 13:39:00;;;;;;;12.43;4.10;;;;;;;;;;4950743;29;20079;-67
2024/01/16 13:41:27;;;;;;;10.27;4.03;;;;;;;;;;4933734;29;20055;-66
2024/01/16 13:43:54;;;;;;;7.85;3.30;;;;;;;;;;4934341;29;20563;-65
2024/01/16 13:46:22;;;;;;;11.23;3.35;;;;;;;;;;4950959;29;20725;-65
2024/01/16 13:49:11;;;;;;;12.50;4.70;;;;;;;;;;4948189;28;20159;-67
2024/01/16 13:51:37;;;;;;;17.13;4.57;;;;;;;;;;4949604;28;20058;-74
2024/01/16 13:54:04;;;;;;;11.07;3.85;;;;;;;;;;4950768;29;20109;-66
2024/01/16 13:56:31;;;;;;;12.02;4.18;;;;;;;;;;4950102;29;20098;-64
2024/01/16 13:59:22;;;;;;;8.18;3.80;;;;;;;;;;4950491;28;20047;-66
2024/01/16 14:01:49;;;;;;;9.02;3.67;;;;;;;;;;4950140;29;20492;-66
2024/01/16 14:04:15;;;;;;;20.95;4.78;;;;;;;;;;4951000;28;20496;-62
2024/01/16 14:06:42;;;;;;;10.43;4.40;;;;;;;;;;4950321;28;20496;-70
2024/01/16 14:09:32;;;;;;;8.20;3.63;;;;;;;;;;4950186;29;20596;-73
2024/01/16 14:11:59;;;;;;;11.80;3.35;;;;;;;;;;4950244;28;20114;-66
2024/01/16 14:14:25;;;;;;;20.88;5.07;;;;;;;;;;4950470;29;20526;-70
2024/01/16 14:16:51;;;;;;;15.50;4.47;;;;;;;;;;4949907;29;20047;-73
2024/01/16 14:19:27;;;;;;;21.75;3.90;;;;;;;;;;4947227;29;20052;-69
2024/01/16 14:21:54;;;;;;;8.38;3.90;;;;;;;;;;4949014;29;20587;-68
2024/01/16 14:24:23;;;;;;;14.15;4.25;;;;;;;;;;4950584;29;20122;-67
2024/01/16 14:26:50;;;;;;;21.52;4.65;;;;;;;;;;4949716;28;20055;-67
2024/01/16 14:29:16;;;;;;;11.85;5.95;;;;;;;;;;4949848;29;20134;-67
2024/01/16 14:31:43;;;;;;;13.02;4.22;;;;;;;;;;4948854;28;20075;-68
2024/01/16 14:34:15;;;;;;;13.23;4.07;;;;;;;;;;4948338;29;20066;-74
2024/01/16 14:36:42;;;;;;;18.48;5.40;;;;;;;;;;4956128;28;20047;-66
2024/01/16 14:39:24;;;;;;;19.00;5.20;;;;;;;;;;4948089;28;20071;-71
2024/01/16 14:41:53;;;;;;;10.95;4.50;;;;;;;;;;4948305;29;20051;-71